Time;durP1;ratioP1;P1;durP2;ratioP2;P2;SDS_P1;SDS_P2;PMS_P1;PMS_P2;Temp;Humidity;BMP_temperature;BMP_pressure;BME280_temperature;BME280_humidity;BME280_pressure;Samples;Min_cycle;Max_cycle;Signal;HPM_P1;HPM_P2
2023/02/25 00:01:20;;;;;;;16.83;3.38;;;;;;;5.80;78.38;98573.41;5013437;28;20066;-76
2023/02/25 00:03:47;;;;;;;12.13;2.65;;;;;;;5.81;78.19;98575.09;5013211;28;20545;-77
2023/02/25 00:06:14;;;;;;;14.32;3.03;;;;;;;5.82;78.61;98579.41;5013294;28;20057;-77
2023/02/25 00:08:44;;;;;;;14.38;2.10;;;;;;;5.80;77.82;98583.84;5012981;28;20068;-77
2023/02/25 00:11:13;;;;;;;21.98;3.22;;;;;;;5.83;78.28;98575.03;5013116;28;20046;-77
2023/02/25 00:13:40;;;;;;;10.93;2.10;;;;;;;5.84;78.10;98569.69;5013151;28;20056;-77
2023/02/25 00:16:08;;;;;;;18.65;2.67;;;;;;;5.83;78.37;98568.00;5012607;28;20112;-77
2023/02/25 00:18:35;;;;;;;14.45;2.55;;;;;;;5.84;78.52;98563.66;5011226;28;20058;-76
2023/02/25 00:21:06;;;;;;;14.95;3.35;;;;;;;5.81;77.71;98572.50;5032407;28;20050;-77
2023/02/25 00:23:33;;;;;;;11.10;2.53;;;;;;;5.82;78.16;98570.72;5032780;28;20049;-77
2023/02/25 00:26:07;;;;;;;13.48;2.80;;;;;;;5.81;78.07;98574.25;5032255;28;20545;-76
2023/02/25 00:28:34;;;;;;;12.38;2.25;;;;;;;5.80;78.07;98562.97;5032221;28;20045;-76
2023/02/25 00:31:06;;;;;;;17.42;2.78;;;;;;;5.77;77.47;98575.34;5032507;28;20057;-77
2023/02/25 00:33:32;;;;;;;17.00;2.92;;;;;;;5.78;78.34;98579.63;5032412;28;20481;-77
2023/02/25 00:35:59;;;;;;;19.67;3.20;;;;;;;5.77;78.25;98572.75;5032117;28;20044;-77
2023/02/25 00:38:26;;;;;;;12.27;2.50;;;;;;;5.77;78.66;98584.03;5031759;28;20085;-77
2023/02/25 00:40:53;;;;;;;14.88;2.58;;;;;;;5.77;78.54;98583.19;5032351;28;20057;-77
2023/02/25 00:43:19;;;;;;;20.05;3.20;;;;;;;5.76;78.71;98584.97;5032325;28;20061;-77
2023/02/25 00:45:46;;;;;;;18.13;2.83;;;;;;;5.76;78.61;98569.31;5031791;28;20053;-77
2023/02/25 00:48:12;;;;;;;12.18;2.15;;;;;;;5.76;78.81;98566.69;5032043;28;20468;-77
2023/02/25 00:50:39;;;;;;;14.10;2.85;;;;;;;5.77;78.84;98570.13;5032390;28;20063;-77
2023/02/25 00:53:05;;;;;;;20.38;3.38;;;;;;;5.77;78.82;98583.19;5032136;28;20128;-77
2023/02/25 00:55:32;;;;;;;16.15;2.80;;;;;;;5.79;78.87;98586.56;5031626;28;20080;-77
2023/02/25 00:58:03;;;;;;;16.98;3.38;;;;;;;5.77;78.26;98589.25;5031556;28;20057;-77
2023/02/25 01:00:29;;;;;;;14.77;2.75;;;;;;;5.80;78.84;98602.13;5032348;28;20109;-77
2023/02/25 01:03:06;;;;;;;22.10;3.47;;;;;;;5.81;78.93;98589.91;5031924;28;20383;-77
2023/02/25 01:05:32;;;;;;;19.67;2.65;;;;;;;5.82;78.83;98589.84;5013900;28;20049;-77
2023/02/25 01:07:59;;;;;;;20.55;3.92;;;;;;;5.82;78.79;98589.84;5031587;28;20088;-77
2023/02/25 01:10:27;;;;;;;14.85;3.20;;;;;;;5.82;78.91;98584.63;5031763;28;20132;-77
2023/02/25 01:12:53;;;;;;;11.32;2.38;;;;;;;5.84;79.04;98598.41;5031956;28;20073;-77
2023/02/25 01:15:20;;;;;;;19.60;3.40;;;;;;;5.85;78.91;98581.84;5031350;28;20139;-77
2023/02/25 01:17:46;;;;;;;9.75;2.72;;;;;;;5.85;78.56;98589.69;5031440;28;20136;-77
2023/02/25 01:20:13;;;;;;;20.58;2.92;;;;;;;5.85;78.84;98594.91;5031466;28;20046;-78
2023/02/25 01:22:40;;;;;;;16.50;2.85;;;;;;;5.85;78.72;98607.97;5031557;28;20054;-77
2023/02/25 01:25:12;;;;;;;13.55;2.72;;;;;;;5.85;78.40;98601.88;5031038;28;20075;-77
2023/02/25 01:27:39;;;;;;;14.65;2.92;;;;;;;5.85;78.61;98602.72;5031373;28;20133;-76
2023/02/25 01:30:07;;;;;;;15.80;3.85;;;;;;;5.85;78.71;98610.56;5031417;28;20508;-77
2023/02/25 01:32:34;;;;;;;16.15;3.22;;;;;;;5.85;78.82;98613.19;5014097;28;20164;-77
2023/02/25 01:35:01;;;;;;;14.10;3.63;;;;;;;5.84;78.90;98606.25;5031103;28;20056;-77
2023/02/25 01:37:27;;;;;;;17.02;3.28;;;;;;;5.85;79.03;98618.41;5030850;28;20053;-77
2023/02/25 01:39:54;;;;;;;21.00;3.08;;;;;;;5.86;78.81;98622.69;5031168;28;20081;-76
2023/02/25 01:42:21;;;;;;;19.38;3.25;;;;;;;5.86;78.67;98622.69;5031424;28;20080;-76
2023/02/25 01:45:18;;;;;;;15.43;2.90;;;;;;;5.83;77.70;98622.84;5030775;28;20525;-77
2023/02/25 01:47:50;;;;;;;12.07;2.78;;;;;;;5.86;78.56;98627.06;5030717;28;20516;-77
2023/02/25 01:50:24;;;;;;;16.63;3.15;;;;;;;5.85;78.33;98634.06;5031226;28;20085;-78
2023/02/25 01:52:52;;;;;;;21.08;3.47;;;;;;;5.88;78.87;98630.44;5031316;28;20081;-77
2023/02/25 01:55:18;;;;;;;17.42;3.92;;;;;;;5.87;78.96;98632.19;4996973;28;20045;-77
2023/02/25 01:57:45;;;;;;;12.52;3.03;;;;;;;5.88;78.98;98627.84;5030595;28;20061;-77
2023/02/25 02:00:16;;;;;;;13.93;3.33;;;;;;;5.87;78.99;98634.00;5030890;28;20063;-77
2023/02/25 02:02:46;;;;;;;13.07;3.15;;;;;;;5.87;78.79;98628.78;5013075;28;20057;-77
2023/02/25 02:05:13;;;;;;;18.10;3.53;;;;;;;5.86;79.13;98627.91;5030632;28;20149;-78
2023/02/25 02:07:40;;;;;;;14.13;2.72;;;;;;;5.87;79.02;98619.16;5030473;28;20053;-77
2023/02/25 02:10:07;;;;;;;12.38;2.80;;;;;;;5.87;79.22;98619.16;5030932;28;20061;-77
2023/02/25 02:12:38;;;;;;;17.30;3.67;;;;;;;5.87;78.56;98621.75;5030594;28;20498;-78
2023/02/25 02:15:09;;;;;;;19.90;4.13;;;;;;;5.88;78.71;98622.63;5029593;28;20418;-77
2023/02/25 02:17:50;;;;;;;13.80;3.47;;;;;;;5.86;78.18;98621.84;5030320;28;20045;-77
2023/02/25 02:20:24;;;;;;;15.02;2.63;;;;;;;5.88;78.26;98625.22;5030452;28;20049;-77
2023/02/25 02:23:24;;;;;;;14.45;3.22;;;;;;;5.86;77.98;98633.13;5030797;28;20051;-77
2023/02/25 02:26:14;;;;;;;12.98;3.58;;;;;;;5.90;79.14;98623.34;5030129;28;20492;-77
2023/02/25 02:29:15;;;;;;;14.63;3.55;;;;;;;5.86;77.76;98617.47;5030398;28;20064;-77
2023/02/25 02:32:04;;;;;;;23.30;3.80;;;;;;;5.86;78.01;98619.22;5030492;28;20049;-77
2023/02/25 02:34:39;;;;;;;13.98;3.08;;;;;;;5.89;79.26;98631.28;5030655;28;20136;-76
2023/02/25 02:37:18;;;;;;;16.77;3.65;;;;;;;5.86;78.26;98638.38;5029773;28;20530;-77
2023/02/25 02:40:04;;;;;;;14.63;3.20;;;;;;;5.89;78.98;98639.09;5030888;28;20520;-76
2023/02/25 02:42:37;;;;;;;15.18;3.42;;;;;;;5.90;79.27;98633.81;5030662;28;20168;-77
2023/02/25 02:45:18;;;;;;;16.02;4.20;;;;;;;5.88;78.17;98622.63;5030253;28;20061;-76
2023/02/25 02:47:51;;;;;;;12.85;2.90;;;;;;;5.87;78.34;98624.38;5029915;28;20482;-76
2023/02/25 02:50:24;;;;;;;13.02;2.08;;;;;;;5.87;78.44;98626.97;5030647;28;20053;-76
2023/02/25 02:52:55;;;;;;;7.20;1.90;;;;;;;5.90;79.17;98640.81;5030308;28;20050;-76
2023/02/25 02:55:29;;;;;;;7.55;2.47;;;;;;;5.89;78.82;98642.56;5030188;28;20045;-77
2023/02/25 02:58:07;;;;;;;7.30;2.30;;;;;;;5.87;78.44;98647.88;5029914;28;20049;-77
2023/02/25 03:00:39;;;;;;;6.18;2.67;;;;;;;5.89;78.87;98641.72;5030401;28;20042;-76
2023/02/25 03:03:15;;;;;;;6.90;3.73;;;;;;;5.87;78.15;98639.22;5012622;28;20049;-77
2023/02/25 03:05:46;;;;;;;7.70;3.30;;;;;;;5.88;78.38;98643.50;5012540;28;20140;-77
2023/02/25 03:08:22;;;;;;;12.98;4.18;;;;;;;5.84;77.89;98637.59;5029991;28;20049;-76
2023/02/25 03:10:48;;;;;;;9.18;3.45;;;;;;;5.85;78.60;98648.88;5012673;28;20486;-77
2023/02/25 03:13:15;;;;;;;11.73;3.47;;;;;;;5.83;78.54;98635.91;5030156;28;20494;-77
2023/02/25 03:15:43;;;;;;;6.63;2.75;;;;;;;5.81;78.50;98640.41;5029741;28;20064;-76
2023/02/25 03:18:39;;;;;;;9.70;2.95;;;;;;;5.76;77.29;98638.97;5029943;28;20073;-77
2023/02/25 03:21:12;;;;;;;11.50;3.05;;;;;;;5.77;77.88;98644.09;5030318;28;20050;-77
2023/02/25 03:23:40;;;;;;;7.97;3.55;;;;;;;5.79;78.95;98647.44;5030083;28;20111;-77
2023/02/25 03:26:21;;;;;;;9.88;2.50;;;;;;;5.74;77.83;98642.50;5029682;28;20053;-76
2023/02/25 03:28:48;;;;;;;7.18;2.50;;;;;;;5.78;78.98;98644.91;5033585;28;20057;-77
2023/02/25 03:31:24;;;;;;;7.63;2.65;;;;;;;5.74;78.22;98660.78;5033810;28;20049;-77
2023/02/25 03:33:57;;;;;;;7.80;2.25;;;;;;;5.74;78.26;98654.69;5033595;28;20049;-77
2023/02/25 03:36:31;;;;;;;11.35;2.05;;;;;;;5.74;78.47;98650.34;5033200;28;20049;-78
2023/02/25 03:39:12;;;;;;;5.97;2.15;;;;;;;5.74;77.92;98652.09;5033260;28;20056;-77
2023/02/25 03:41:43;;;;;;;4.68;1.90;;;;;;;5.78;78.98;98663.19;5033635;28;20079;-77
2023/02/25 03:44:15;;;;;;;9.10;2.67;;;;;;;5.76;79.01;98665.91;5033564;28;20115;-77
2023/02/25 03:46:46;;;;;;;6.07;1.83;;;;;;;5.77;78.88;98667.59;5032847;28;20107;-77
2023/02/25 03:49:19;;;;;;;7.95;2.15;;;;;;;5.76;78.76;98671.16;5033513;28;20055;-76
2023/02/25 03:51:48;;;;;;;7.10;2.15;;;;;;;5.77;79.06;98677.19;5033549;28;20050;-77
2023/02/25 03:54:15;;;;;;;8.90;3.20;;;;;;;5.76;79.34;98678.97;5033312;28;20541;-77
2023/02/25 03:56:47;;;;;;;7.72;2.88;;;;;;;5.76;78.64;98688.56;5032148;28;20049;-77
2023/02/25 03:59:15;;;;;;;4.55;2.30;;;;;;;5.78;79.28;98689.31;5033320;28;20092;-77
2023/02/25 04:01:45;;;;;;;8.00;2.80;;;;;;;5.79;78.96;98686.63;5033086;28;20049;-77
2023/02/25 04:04:11;;;;;;;8.02;2.80;;;;;;;5.78;79.30;98694.53;5033264;28;20108;-77
2023/02/25 04:06:38;;;;;;;5.38;2.55;;;;;;;5.79;79.59;98701.47;5032017;28;20085;-77
2023/02/25 04:09:05;;;;;;;5.60;2.38;;;;;;;5.80;79.43;98698.75;5033069;28;20046;-77
2023/02/25 04:11:32;;;;;;;5.93;2.10;;;;;;;5.81;79.29;98699.59;5033015;28;20103;-77
2023/02/25 04:13:58;;;;;;;9.13;2.58;;;;;;;5.81;79.14;98708.28;5032921;28;20105;-77
2023/02/25 04:16:25;;;;;;;6.82;2.17;;;;;;;5.82;79.04;98701.28;5032616;28;20067;-77
2023/02/25 04:18:51;;;;;;;3.53;2.00;;;;;;;5.80;78.83;98706.59;5032193;28;20540;-77
2023/02/25 04:21:34;;;;;;;5.43;1.98;;;;;;;5.77;78.09;98704.16;5032961;28;20056;-77
2023/02/25 04:24:02;;;;;;;3.50;1.38;;;;;;;5.80;78.88;98714.41;5032932;28;20049;-76
2023/02/25 04:26:28;;;;;;;6.40;1.40;;;;;;;5.80;78.95;98709.19;5014741;28;20144;-76
2023/02/25 04:28:55;;;;;;;6.80;1.75;;;;;;;5.80;78.79;98711.81;5032268;28;20052;-77
2023/02/25 04:31:22;;;;;;;4.95;2.00;;;;;;;5.80;78.92;98711.81;5032619;28;20409;-77
2023/02/25 04:33:49;;;;;;;5.93;2.38;;;;;;;5.80;79.02;98718.81;5032660;28;20057;-77
2023/02/25 04:36:26;;;;;;;9.13;2.60;;;;;;;5.76;78.00;98718.16;5032111;28;20061;-77
2023/02/25 04:38:54;;;;;;;9.50;2.78;;;;;;;5.80;79.08;98722.25;5031269;28;20057;-77
2023/02/25 04:41:22;;;;;;;9.05;2.88;;;;;;;5.80;79.08;98722.25;5032491;28;20081;-77
2023/02/25 04:43:49;;;;;;;9.45;2.80;;;;;;;5.81;79.10;98737.03;5032457;28;20056;-77
2023/02/25 04:46:15;;;;;;;10.00;2.55;;;;;;;5.82;79.50;98723.03;5031895;28;20128;-77
2023/02/25 04:48:42;;;;;;;12.55;3.55;;;;;;;5.82;79.65;98723.03;5031673;28;20514;-77
2023/02/25 04:51:09;;;;;;;7.28;3.50;;;;;;;5.85;79.59;98724.63;5032040;28;20053;-77
2023/02/25 04:53:35;;;;;;;16.20;4.47;;;;;;;5.87;79.53;98726.22;5014560;28;20052;-78
2023/02/25 04:56:07;;;;;;;10.73;4.22;;;;;;;5.86;79.14;98724.56;5031619;28;20406;-77
2023/02/25 04:58:35;;;;;;;13.77;4.22;;;;;;;5.90;79.57;98727.00;5031393;28;20088;-77
2023/02/25 05:01:06;;;;;;;11.60;4.97;;;;;;;5.92;79.67;98719.91;5014395;28;20056;-78
2023/02/25 05:03:32;;;;;;;15.15;5.68;;;;;;;5.94;79.67;98718.06;5032117;28;20049;-77
2023/02/25 05:05:59;;;;;;;17.50;5.53;;;;;;;5.96;79.70;98724.91;5031362;28;20054;-78
2023/02/25 05:08:25;;;;;;;16.30;5.75;;;;;;;5.97;79.75;98733.56;5031452;28;20402;-77
2023/02/25 05:10:52;;;;;;;9.88;4.82;;;;;;;5.98;79.74;98728.25;5031696;28;20508;-77
2023/02/25 05:13:19;;;;;;;14.90;4.82;;;;;;;5.99;79.86;98716.03;5031826;28;20418;-77
2023/02/25 05:15:46;;;;;;;16.58;5.10;;;;;;;6.01;79.64;98727.25;5031423;28;20434;-77
2023/02/25 05:18:13;;;;;;;14.23;3.97;;;;;;;6.02;79.53;98718.47;5031024;28;20071;-78
2023/02/25 05:20:45;;;;;;;10.65;3.60;;;;;;;6.02;78.95;98730.72;5043476;23;20049;-77
2023/02/25 05:23:13;;;;;;;13.30;4.33;;;;;;;6.05;79.61;98727.97;5011393;28;20140;-77
2023/02/25 05:25:47;;;;;;;8.85;3.40;;;;;;;6.05;79.34;98734.00;5011911;28;20053;-75
2023/02/25 05:28:13;;;;;;;11.93;3.28;;;;;;;6.07;79.19;98737.41;5011171;28;20145;-77
2023/02/25 05:30:40;;;;;;;8.38;2.30;;;;;;;6.07;79.22;98726.94;5011837;28;20478;-77
2023/02/25 05:33:07;;;;;;;11.50;2.88;;;;;;;6.10;79.31;98734.59;5012034;28;20057;-77
2023/02/25 05:35:39;;;;;;;9.00;2.50;;;;;;;6.09;78.96;98738.16;5012184;28;20046;-77
2023/02/25 05:38:06;;;;;;;10.52;2.30;;;;;;;6.11;79.08;98745.91;5011733;28;20052;-77
2023/02/25 05:40:32;;;;;;;10.52;1.80;;;;;;;6.12;79.17;98742.34;5011516;28;20567;-77
2023/02/25 05:43:02;;;;;;;8.20;1.90;;;;;;;6.12;79.24;98750.19;5011622;28;20054;-76
2023/02/25 05:46:06;;;;;;;;;;;;;;;;;;;;;
2023/02/25 05:48:37;;;;;;;10.77;1.60;;;;;;;6.13;78.99;98765.78;5003092;28;20510;-77
2023/02/25 05:51:12;;;;;;;12.75;1.55;;;;;;;6.12;79.11;98764.13;5010686;28;20046;-77
2023/02/25 05:53:39;;;;;;;10.85;2.50;;;;;;;6.12;79.15;98764.13;5011680;28;20042;-78
2023/02/25 05:56:09;;;;;;;7.68;1.40;;;;;;;6.10;78.83;98763.34;5010981;28;20507;-77
2023/02/25 05:58:36;;;;;;;5.80;1.65;;;;;;;6.11;78.96;98766.81;5011005;28;20079;-77
2023/02/25 06:01:56;;;;;;;4.80;1.48;;;;;;;6.05;77.07;98770.59;5012033;28;20081;-78
2023/02/25 06:04:31;;;;;;;4.28;0.93;;;;;;;6.07;78.18;98768.75;4974898;28;20085;-77
2023/02/25 06:06:58;;;;;;;2.20;1.00;;;;;;;6.04;77.86;98766.31;5008535;28;20052;-78
2023/02/25 06:09:25;;;;;;;3.75;0.60;;;;;;;6.00;77.40;98755.16;4990150;28;20547;-77
2023/02/25 06:11:52;;;;;;;1.65;0.60;;;;;;;5.97;77.63;98757.06;5013773;28;20053;-77
2023/02/25 06:14:18;;;;;;;1.17;0.55;;;;;;;5.91;77.40;98758.22;5011300;28;20073;-77
2023/02/25 06:16:45;;;;;;;4.13;0.90;;;;;;;5.91;77.42;98762.63;4993131;28;20050;-77
2023/02/25 06:19:12;;;;;;;3.08;0.55;;;;;;;5.87;77.63;98770.63;5011081;28;20111;-77
2023/02/25 06:21:39;;;;;;;1.63;0.47;;;;;;;5.85;77.66;98771.63;5011201;28;20136;-77
2023/02/25 06:24:06;;;;;;;0.60;0.50;;;;;;;5.84;77.68;98783.84;5011260;28;20050;-77
2023/02/25 06:26:34;;;;;;;2.22;0.77;;;;;;;5.82;77.79;98785.72;5010233;28;20046;-77
2023/02/25 06:29:00;;;;;;;0.60;0.50;;;;;;;5.82;77.54;98793.53;5010711;28;20490;-77
2023/02/25 06:31:27;;;;;;;1.95;0.50;;;;;;;5.81;77.43;98797.09;5010785;28;20045;-77
2023/02/25 06:33:53;;;;;;;1.67;0.40;;;;;;;5.79;77.25;98798.09;5010724;28;20052;-77
2023/02/25 06:36:20;;;;;;;0.63;0.50;;;;;;;5.76;77.38;98806.94;5010527;28;20071;-78
2023/02/25 06:38:47;;;;;;;1.98;0.38;;;;;;;5.74;77.66;98814.00;5010497;28;20053;-77
2023/02/25 06:41:19;;;;;;;1.05;0.50;;;;;;;5.71;76.61;98822.81;5009815;28;20100;-77
2023/02/25 06:43:50;;;;;;;4.03;0.65;;;;;;;5.72;77.62;98827.13;5011626;28;20053;-77
2023/02/25 06:46:20;;;;;;;2.63;0.50;;;;;;;5.73;77.38;98827.97;5009522;28;20487;-77
2023/02/25 06:48:47;;;;;;;1.42;0.70;;;;;;;5.72;77.97;98823.69;5011424;28;20117;-77
2023/02/25 06:51:14;;;;;;;2.35;1.23;;;;;;;5.73;78.07;98835.81;5010780;28;20050;-77
2023/02/25 06:57:45;;;;;;;2.53;1.05;;;;;;;5.77;78.32;98846.94;4930765;29;20050;-78
2023/02/25 07:00:12;;;;;;;3.25;1.15;;;;;;;5.76;78.34;98853.94;4999754;28;20068;-78
2023/02/25 07:02:39;;;;;;;3.63;1.05;;;;;;;5.77;78.24;98855.63;5025316;28;20560;-77
2023/02/25 07:05:06;;;;;;;5.60;1.42;;;;;;;5.77;78.51;98842.56;5029328;28;20103;-77
2023/02/25 07:07:32;;;;;;;4.97;1.20;;;;;;;5.78;78.42;98846.00;5003915;28;20567;-78
2023/02/25 07:09:59;;;;;;;3.25;1.27;;;;;;;5.78;78.33;98846.00;5017194;28;20056;-78
2023/02/25 07:12:26;;;;;;;4.28;1.52;;;;;;;5.80;78.59;98849.41;5024289;28;20092;-77
2023/02/25 07:14:52;;;;;;;6.68;1.35;;;;;;;5.81;78.70;98861.53;5010063;28;20045;-77
2023/02/25 07:17:19;;;;;;;8.80;1.63;;;;;;;5.82;78.85;98855.38;5003315;28;20046;-77
2023/02/25 07:19:45;;;;;;;6.32;1.75;;;;;;;5.83;78.76;98863.13;5033024;28;20554;-78
2023/02/25 07:22:17;;;;;;;4.60;1.60;;;;;;;5.83;78.19;98867.53;5033595;28;20081;-77
2023/02/25 07:24:44;;;;;;;5.50;1.55;;;;;;;5.86;78.85;98860.38;5015890;28;20077;-78
2023/02/25 07:27:12;;;;;;;9.82;1.63;;;;;;;5.88;79.29;98870.72;5033036;28;20067;-78
2023/02/25 07:29:40;;;;;;;4.47;1.33;;;;;;;5.91;79.32;98877.56;5033457;28;20141;-78
2023/02/25 07:32:07;;;;;;;6.88;2.00;;;;;;;5.94;79.52;98877.41;5033414;28;20081;-77
2023/02/25 07:34:36;;;;;;;11.68;1.80;;;;;;;5.96;79.61;98879.00;5033738;28;20123;-78
2023/02/25 07:37:02;;;;;;;7.95;1.92;;;;;;;6.02;79.90;98877.81;5033039;28;20057;-77
2023/02/25 07:39:29;;;;;;;8.18;1.80;;;;;;;6.05;79.64;98890.78;5033651;28;20049;-78
2023/02/25 07:41:56;;;;;;;7.90;1.45;;;;;;;6.09;79.87;98889.69;5033526;28;20084;-78
2023/02/25 07:44:22;;;;;;;4.90;1.27;;;;;;;6.14;79.92;98894.69;5033439;28;20206;-78
2023/02/25 07:46:49;;;;;;;13.50;1.67;;;;;;;6.19;79.72;98889.19;5005493;28;20137;-77
2023/02/25 07:49:15;;;;;;;8.75;1.60;;;;;;;6.24;80.02;98895.88;5017366;28;20041;-78
2023/02/25 07:51:42;;;;;;;9.40;1.67;;;;;;;6.28;79.81;98896.53;5019515;28;20053;-78
2023/02/25 07:54:09;;;;;;;6.03;1.95;;;;;;;6.32;79.96;98894.63;5016276;28;20073;-78
2023/02/25 07:56:35;;;;;;;6.95;1.70;;;;;;;6.34;79.52;98896.22;5032141;28;20136;-77
2023/02/25 07:59:02;;;;;;;5.35;1.40;;;;;;;6.39;79.94;98902.06;5032972;28;20045;-77
2023/02/25 08:01:31;;;;;;;6.80;1.55;;;;;;;6.41;79.77;98904.59;5031849;28;20692;-78
2023/02/25 08:04:03;;;;;;;4.07;1.27;;;;;;;6.45;79.60;98908.72;5014016;28;20067;-78
2023/02/25 08:06:30;;;;;;;13.00;2.05;;;;;;;6.49;79.98;98915.47;5013711;28;20046;-78
2023/02/25 08:08:57;;;;;;;4.00;1.50;;;;;;;6.54;79.90;98915.22;5031156;28;20060;-77
2023/02/25 08:11:24;;;;;;;6.50;1.30;;;;;;;6.57;80.09;98922.06;5031667;28;20136;-78
2023/02/25 08:13:52;;;;;;;5.82;1.35;;;;;;;6.60;79.95;98927.97;5014266;28;20526;-78
2023/02/25 08:16:22;;;;;;;3.90;1.35;;;;;;;6.66;79.45;98921.56;5034327;28;20080;-78
2023/02/25 08:19:05;;;;;;;9.38;1.48;;;;;;;6.70;79.63;98930.09;4971693;28;20427;-78
2023/02/25 08:21:32;;;;;;;5.05;1.75;;;;;;;6.73;79.92;98925.53;4971247;28;20593;-78
2023/02/25 08:23:59;;;;;;;6.40;1.77;;;;;;;6.77;79.71;98926.22;4971321;28;20086;-78
2023/02/25 08:26:26;;;;;;;8.13;1.77;;;;;;;6.78;79.64;98926.13;4970890;28;20097;-78
2023/02/25 08:28:53;;;;;;;10.77;1.55;;;;;;;6.81;79.29;98932.97;4971044;28;20047;-78
2023/02/25 08:31:20;;;;;;;7.32;1.75;;;;;;;6.83;79.67;98938.09;4971440;28;20137;-78
2023/02/25 08:33:48;;;;;;;9.27;1.40;;;;;;;6.84;78.96;98940.63;5002300;28;20119;-78
2023/02/25 08:36:21;;;;;;;8.98;1.50;;;;;;;6.84;77.47;98951.09;5031050;28;20077;-78
2023/02/25 08:38:50;;;;;;;6.88;1.60;;;;;;;6.87;78.97;98937.00;5012350;28;20054;-78
2023/02/25 08:41:18;;;;;;;8.27;1.70;;;;;;;6.87;78.97;98913.47;5012960;28;20056;-77
2023/02/25 08:43:50;;;;;;;5.43;1.33;;;;;;;6.88;78.63;98941.34;5012584;28;20065;-78
2023/02/25 08:46:17;;;;;;;13.13;1.90;;;;;;;6.90;79.42;98924.63;5012317;28;20045;-77
2023/02/25 08:48:50;;;;;;;8.25;1.58;;;;;;;6.93;78.87;98930.59;5012069;28;20169;-77
2023/02/25 08:51:18;;;;;;;8.65;1.85;;;;;;;6.98;79.51;98937.25;5012446;28;20045;-78
2023/02/25 08:53:45;;;;;;;5.55;1.60;;;;;;;7.01;79.94;98944.09;4995278;28;20160;-78
2023/02/25 08:56:13;;;;;;;7.35;1.90;;;;;;;7.06;79.47;98949.09;5012155;28;20064;-77
2023/02/25 08:58:40;;;;;;;8.38;1.90;;;;;;;7.10;79.09;98948.81;5011941;28;20054;-77
2023/02/25 09:01:12;;;;;;;7.85;1.77;;;;;;;7.10;77.55;98954.06;4994824;28;20132;-79
2023/02/25 09:03:50;;;;;;;10.20;1.73;;;;;;;7.14;77.85;98963.41;5012158;28;20080;-78
2023/02/25 09:06:26;;;;;;;8.73;1.70;;;;;;;7.12;77.38;98960.06;5012202;28;20053;-78
2023/02/25 09:08:55;;;;;;;7.35;2.10;;;;;;;7.10;76.72;98964.53;5011555;28;20058;-77
2023/02/25 09:11:24;;;;;;;8.05;1.58;;;;;;;7.05;76.36;98979.63;5012146;28;20065;-78
2023/02/25 09:13:52;;;;;;;10.82;2.10;;;;;;;7.01;76.31;98988.59;5011963;28;20096;-78
2023/02/25 09:16:19;;;;;;;8.02;1.40;;;;;;;6.95;76.45;98978.47;5011714;28;20085;-78
2023/02/25 09:18:47;;;;;;;6.90;1.55;;;;;;;6.90;76.56;98979.56;5011838;28;20054;-78
2023/02/25 09:21:14;;;;;;;11.18;1.85;;;;;;;6.85;76.07;98986.81;5012063;28;20056;-78
2023/02/25 09:23:41;;;;;;;8.80;2.00;;;;;;;6.83;76.39;98996.50;5011864;28;20124;-78
2023/02/25 09:26:08;;;;;;;7.82;1.70;;;;;;;6.81;76.48;98993.16;5011376;28;20046;-78
2023/02/25 09:28:35;;;;;;;7.28;1.40;;;;;;;6.80;76.36;98994.03;5011524;28;20140;-78
2023/02/25 09:31:02;;;;;;;8.65;1.75;;;;;;;6.78;75.97;99001.16;5011584;28;20057;-79
2023/02/25 09:33:34;;;;;;;6.05;2.13;;;;;;;6.74;73.90;99003.09;5011699;28;20049;-78
2023/02/25 09:36:08;;;;;;;4.47;1.40;;;;;;;6.74;73.82;99024.00;5011462;28;20049;-77
2023/02/25 09:38:35;;;;;;;6.70;1.55;;;;;;;6.76;75.82;99016.06;5011153;28;20396;-78
2023/02/25 09:41:03;;;;;;;12.82;1.80;;;;;;;6.71;74.33;98998.00;5011585;28;20053;-78
2023/02/25 09:43:38;;;;;;;9.07;1.50;;;;;;;6.68;73.33;99023.47;5011514;28;20084;-78
2023/02/25 09:46:09;;;;;;;9.30;1.73;;;;;;;6.65;74.21;99027.94;5011217;28;20594;-78
2023/02/25 09:49:16;;;;;;;5.55;1.88;;;;;;;6.60;70.63;99037.81;5011134;28;20478;-78
2023/02/25 09:51:50;;;;;;;11.10;1.73;;;;;;;6.65;74.74;99045.41;4972669;28;20449;-78
2023/02/25 09:54:24;;;;;;;8.25;1.25;;;;;;;6.68;76.47;99049.63;5011514;28;20089;-78
2023/02/25 09:56:54;;;;;;;5.03;1.20;;;;;;;6.69;75.67;99048.72;5010890;28;20050;-78
2023/02/25 09:59:20;;;;;;;7.80;1.83;;;;;;;6.72;76.08;99041.53;5011240;28;20050;-78
2023/02/25 10:01:56;;;;;;;10.73;1.98;;;;;;;6.71;72.70;99055.56;5001308;28;20076;-78
2023/02/25 10:04:31;;;;;;;9.15;1.63;;;;;;;6.73;71.90;99055.47;5020658;28;20581;-78
2023/02/25 10:07:17;;;;;;;10.45;2.13;;;;;;;6.71;70.04;99075.63;4991315;28;20058;-78
2023/02/25 10:10:01;;;;;;;8.02;1.60;;;;;;;6.65;66.27;99061.94;4991623;28;20046;-78
2023/02/25 10:12:44;;;;;;;6.55;1.42;;;;;;;6.62;68.88;99082.19;5003210;28;20093;-78
2023/02/25 10:15:49;;;;;;;7.95;2.00;;;;;;;6.56;67.64;99077.25;5010923;28;20085;-78
2023/02/25 10:18:34;;;;;;;5.70;1.10;;;;;;;6.52;70.25;99081.81;4941691;28;20050;-78
2023/02/25 10:21:16;;;;;;;11.60;1.90;;;;;;;6.51;69.59;99093.19;5009623;28;20050;-78
2023/02/25 10:24:02;;;;;;;8.10;1.40;;;;;;;6.53;71.10;99087.91;5010750;28;20092;-78
2023/02/25 10:26:34;;;;;;;6.28;1.50;;;;;;;6.57;72.18;99095.50;5010660;28;20093;-78
2023/02/25 10:29:10;;;;;;;3.60;1.27;;;;;;;6.58;72.11;99097.16;5010831;28;20513;-78
2023/02/25 10:31:42;;;;;;;3.63;1.33;;;;;;;6.60;72.85;99097.97;4992716;28;20499;-78
2023/02/25 10:34:25;;;;;;;6.07;1.57;;;;;;;6.59;67.14;99095.41;5010638;28;20049;-78
2023/02/25 10:36:57;;;;;;;8.95;1.48;;;;;;;6.63;71.11;99092.56;5019284;28;20561;-78
2023/02/25 10:39:25;;;;;;;4.90;1.17;;;;;;;6.67;73.04;99108.94;5037095;28;20049;-78
2023/02/25 10:41:53;;;;;;;4.10;1.20;;;;;;;6.70;73.32;99110.56;5036972;28;20089;-78
2023/02/25 10:44:20;;;;;;;3.88;1.48;;;;;;;6.72;73.03;99119.16;5037536;28;20067;-78
2023/02/25 10:47:04;;;;;;;5.32;1.10;;;;;;;6.75;73.45;99124.22;5036190;28;20502;-78
2023/02/25 10:49:37;;;;;;;3.40;1.20;;;;;;;6.80;73.12;99116.16;5035966;28;20056;-78
2023/02/25 10:52:05;;;;;;;;;;;;;;;6.81;64.41;99118.72;5036450;28;20076;-77
2023/02/25 10:54:43;;;;;;;3.17;0.93;;;;;;;6.90;71.98;99130.44;5019511;28;20328;-77
2023/02/25 10:57:14;;;;;;;3.00;0.68;;;;;;;6.95;70.22;99114.53;5019744;28;20129;-77
2023/02/25 10:59:43;;;;;;;2.65;0.80;;;;;;;7.04;73.64;99129.72;5007819;28;20161;-77
2023/02/25 11:02:21;;;;;;;1.35;0.70;;;;;;;7.13;68.57;99124.00;5033585;28;20525;-77
2023/02/25 11:04:51;;;;;;;2.97;0.85;;;;;;;7.27;72.36;99132.91;5036574;28;20045;-77
2023/02/25 11:07:29;;;;;;;3.80;1.00;;;;;;;7.34;67.35;99126.41;5036436;28;20124;-77
2023/02/25 11:10:08;;;;;;;1.98;0.70;;;;;;;7.43;65.86;99119.81;5036982;28;20369;-78
2023/02/25 11:13:04;;;;;;;1.63;0.45;;;;;;;7.53;66.21;99122.78;5019063;28;20049;-78
2023/02/25 11:15:35;;;;;;;2.15;0.75;;;;;;;7.61;68.39;99112.75;5036659;28;20081;-78
2023/02/25 11:18:26;;;;;;;1.77;0.60;;;;;;;7.65;58.17;99135.22;5036313;28;20522;-78
2023/02/25 11:20:55;;;;;;;2.05;0.80;;;;;;;7.76;67.67;99133.78;4444550;23;20049;-79
2023/02/25 11:23:31;;;;;;;3.20;1.00;;;;;;;7.86;68.34;99149.84;5014544;28;20046;-78
2023/02/25 11:25:58;;;;;;;2.95;0.80;;;;;;;7.99;71.43;99150.00;5016134;28;20046;-79
2023/02/25 11:28:33;;;;;;;3.92;1.25;;;;;;;8.11;68.61;99149.28;5016072;28;20484;-78
2023/02/25 11:31:09;;;;;;;4.82;1.10;;;;;;;8.27;67.80;99148.44;5015893;28;20501;-78
2023/02/25 11:33:44;;;;;;;4.65;1.00;;;;;;;8.38;67.47;99146.03;5016768;28;20124;-78
2023/02/25 11:36:11;;;;;;;2.97;0.70;;;;;;;8.55;70.88;99154.72;5016293;28;20038;-79
2023/02/25 11:38:40;;;;;;;3.92;0.88;;;;;;;8.66;69.21;99149.69;5015941;28;20050;-79
2023/02/25 11:41:22;;;;;;;3.65;0.88;;;;;;;8.75;62.21;99136.97;5016236;28;20088;-79
2023/02/25 11:43:49;;;;;;;4.28;1.10;;;;;;;8.92;68.16;99149.06;5016918;28;20046;-79
2023/02/25 11:46:26;;;;;;;4.72;1.10;;;;;;;9.04;63.25;99148.34;5016506;28;20057;-79
2023/02/25 11:49:04;;;;;;;3.85;0.80;;;;;;;9.27;67.67;99147.88;5014003;28;20480;-79
2023/02/25 11:51:46;;;;;;;5.40;1.23;;;;;;;9.60;67.72;99154.59;5013883;28;20073;-79
2023/02/25 11:54:12;;;;;;;3.78;0.82;;;;;;;10.10;79.28;99152.28;5013757;28;20042;-78
2023/02/25 11:56:47;;;;;;;6.72;1.13;;;;;;;10.65;79.13;99161.97;5012904;28;20046;-79
2023/02/25 11:59:39;;;;;;;2.45;0.70;;;;;;;11.38;68.71;99166.69;5013446;28;20124;-79
2023/02/25 12:02:26;;;;;;;3.22;0.90;;;;;;;12.12;69.28;99153.53;5012906;28;20042;-80